createdAt,value
2017-07-24T00:02:20.190Z,71.70
2017-07-24T00:04:47.616Z,71.10
2017-07-24T00:07:15.796Z,70.40
2017-07-24T00:09:43.980Z,70.20
2017-07-24T00:12:11.403Z,70.20
2017-07-24T00:14:38.829Z,71.90
2017-07-24T00:20:11.622Z,71.90
2017-07-24T00:22:39.049Z,71.90
2017-07-24T00:25:06.474Z,72.40
2017-07-24T00:27:33.889Z,73.00
2017-07-24T00:30:01.334Z,72.70
2017-07-24T00:32:28.757Z,73.40
2017-07-24T00:34:56.947Z,73.90
2017-07-24T00:37:24.370Z,73.90
2017-07-24T00:39:52.565Z,73.20
2017-07-24T00:42:20.064Z,72.60
2017-07-24T00:44:47.465Z,72.30
2017-07-24T00:47:15.655Z,71.60
2017-07-24T00:49:43.088Z,71.40
2017-07-24T00:52:11.272Z,72.00
2017-07-24T00:54:39.480Z,71.40
2017-07-24T00:57:06.884Z,70.50
2017-07-24T00:59:35.080Z,71.10
2017-07-24T01:02:03.270Z,71.60
2017-07-24T01:04:30.709Z,71.50
2017-07-24T01:06:58.895Z,72.10
2017-07-24T01:09:26.309Z,71.20
2017-07-24T01:11:53.749Z,71.00
2017-07-24T01:14:21.161Z,70.20
2017-07-24T01:16:48.605Z,70.70
2017-07-24T01:19:16.792Z,71.40
2017-07-24T01:21:44.212Z,71.30
2017-07-24T01:24:12.433Z,71.10
2017-07-24T01:26:39.844Z,71.20
2017-07-24T01:29:08.041Z,71.30
2017-07-24T01:31:35.473Z,71.30
2017-07-24T01:34:03.711Z,70.00
2017-07-24T01:36:31.128Z,70.00
2017-07-24T01:38:58.585Z,69.70
2017-07-24T01:41:26.761Z,69.50
2017-07-24T01:43:54.192Z,69.40
2017-07-24T01:46:22.388Z,69.10
2017-07-24T01:48:49.823Z,69.00
2017-07-24T01:51:18.015Z,69.30
2017-07-24T01:53:45.451Z,69.20
2017-07-24T01:56:13.632Z,69.50
2017-07-24T01:58:41.876Z,69.40
2017-07-24T02:01:09.297Z,69.40
2017-07-24T02:03:36.744Z,69.60
2017-07-24T02:06:04.168Z,69.40
2017-07-24T02:08:32.390Z,69.20
2017-07-24T02:10:59.823Z,69.20
2017-07-24T02:13:27.261Z,69.30
2017-07-24T02:15:55.484Z,68.60
2017-07-24T02:18:22.891Z,68.50
2017-07-24T02:20:51.094Z,68.30
2017-07-24T02:23:18.524Z,68.30
2017-07-24T02:25:45.990Z,67.80
2017-07-24T02:28:13.406Z,68.20
2017-07-24T02:30:40.866Z,68.60
2017-07-24T02:33:08.312Z,70.10
2017-07-24T02:35:35.734Z,70.40
2017-07-24T02:38:03.153Z,71.20
2017-07-24T02:40:31.421Z,72.80
2017-07-24T02:42:59.614Z,72.90
2017-07-24T02:45:27.041Z,72.70
2017-07-24T02:47:54.494Z,73.20
2017-07-24T02:50:21.921Z,73.70
2017-07-24T02:52:49.339Z,74.20
2017-07-24T02:55:16.760Z,74.00
2017-07-24T02:57:44.185Z,73.50
2017-07-24T03:00:11.632Z,74.10
2017-07-24T03:02:39.036Z,74.20
2017-07-24T03:05:07.261Z,74.50
2017-07-24T03:07:34.688Z,74.50
2017-07-24T03:10:02.116Z,75.40
2017-07-24T03:12:29.734Z,75.00
2017-07-24T03:14:57.161Z,75.70
2017-07-24T03:17:24.576Z,76.20
2017-07-24T03:19:52.003Z,77.00
2017-07-24T03:22:19.479Z,77.50
2017-07-24T03:24:47.212Z,76.70
2017-07-24T03:27:14.718Z,77.10
2017-07-24T03:29:42.908Z,76.40
2017-07-24T03:32:11.114Z,75.10
2017-07-24T03:34:38.554Z,75.10
2017-07-24T03:37:06.744Z,76.00
2017-07-24T03:39:34.176Z,75.80
2017-07-24T03:42:01.600Z,75.70
2017-07-24T03:44:29.038Z,75.10
2017-07-24T03:46:56.466Z,75.90
2017-07-24T03:49:23.885Z,77.00
2017-07-24T03:51:52.080Z,77.50
2017-07-24T03:54:19.529Z,77.40
2017-07-24T03:56:46.995Z,77.60
2017-07-24T03:59:14.423Z,78.10
2017-07-24T04:01:42.681Z,78.80
2017-07-24T04:04:10.101Z,78.80
2017-07-24T04:06:37.529Z,78.60
2017-07-24T04:09:04.988Z,78.30
2017-07-24T04:11:32.425Z,79.20
2017-07-24T04:14:00.621Z,78.50
2017-07-24T04:16:29.067Z,78.50
2017-07-24T04:18:56.480Z,77.50
2017-07-24T04:21:23.914Z,76.80
2017-07-24T04:23:51.347Z,76.90
2017-07-24T04:26:19.551Z,77.50
2017-07-24T04:28:46.974Z,77.30
2017-07-24T04:31:15.186Z,76.90
2017-07-24T04:33:42.641Z,76.90
2017-07-24T04:36:10.149Z,76.50
2017-07-24T04:38:38.345Z,76.50
2017-07-24T04:41:05.770Z,75.40
2017-07-24T04:43:33.223Z,75.00
2017-07-24T04:46:00.690Z,74.90
2017-07-24T04:48:28.128Z,74.90
2017-07-24T04:50:55.567Z,74.60
2017-07-24T04:53:23.014Z,74.00
2017-07-24T04:55:50.420Z,73.90
2017-07-24T04:58:17.888Z,73.30
2017-07-24T05:00:45.351Z,73.30
2017-07-24T05:03:12.768Z,72.10
2017-07-24T05:05:40.205Z,72.10
2017-07-24T05:08:07.654Z,70.80
2017-07-24T05:10:35.308Z,70.60
2017-07-24T05:13:02.734Z,70.30
2017-07-24T05:15:30.196Z,69.80
2017-07-24T05:17:57.629Z,70.10
2017-07-24T05:20:25.833Z,69.50
2017-07-24T05:22:53.277Z,69.30
2017-07-24T05:25:20.730Z,69.90
2017-07-24T05:27:49.126Z,69.20
2017-07-24T05:30:16.903Z,69.20
2017-07-24T05:32:44.690Z,68.70
2017-07-24T05:35:12.229Z,68.60
2017-07-24T05:37:39.854Z,68.60
2017-07-24T05:40:07.276Z,67.90
2017-07-24T05:42:34.812Z,67.90
2017-07-24T05:45:02.492Z,67.40
2017-07-24T05:47:30.024Z,67.70
2017-07-24T05:49:57.699Z,67.40
2017-07-24T05:52:25.282Z,67.10
2017-07-24T05:54:53.163Z,67.00
2017-07-24T05:57:20.692Z,66.00
2017-07-24T05:59:49.164Z,66.00
2017-07-24T06:02:16.615Z,65.90
2017-07-24T06:04:44.096Z,65.60
2017-07-24T06:07:11.510Z,65.80
2017-07-24T06:09:39.024Z,65.00
2017-07-24T06:12:07.221Z,63.10
2017-07-24T06:14:34.792Z,63.00
2017-07-24T06:17:02.263Z,63.00
2017-07-24T06:19:29.696Z,62.50
2017-07-24T06:21:57.141Z,62.70
2017-07-24T06:24:24.557Z,62.60
2017-07-24T06:26:51.987Z,63.60
2017-07-24T06:29:19.442Z,64.00
2017-07-24T06:31:46.981Z,63.40
2017-07-24T06:34:14.564Z,64.40
2017-07-24T06:36:42.148Z,63.10
2017-07-24T06:39:09.696Z,62.50
2017-07-24T06:41:37.261Z,62.00
2017-07-24T06:44:04.742Z,62.70
2017-07-24T06:46:32.255Z,63.20
2017-07-24T06:48:59.731Z,63.80
2017-07-24T06:51:27.210Z,63.70
2017-07-24T06:53:54.768Z,63.60
2017-07-24T06:56:22.518Z,63.60
2017-07-24T06:58:50.052Z,62.60
2017-07-24T07:01:18.610Z,60.00
2017-07-24T07:03:46.120Z,60.00
2017-07-24T07:06:13.620Z,59.20
2017-07-24T07:08:41.096Z,59.40
2017-07-24T07:11:08.513Z,59.70
2017-07-24T07:13:35.929Z,60.20
2017-07-24T07:16:03.381Z,60.20
2017-07-24T07:18:31.630Z,60.10
2017-07-24T07:20:59.826Z,60.20
2017-07-24T07:23:27.257Z,60.10
2017-07-24T07:25:54.714Z,60.80
2017-07-24T07:28:22.912Z,60.70
2017-07-24T07:30:50.346Z,59.90
2017-07-24T07:33:18.535Z,60.20
2017-07-24T07:35:45.960Z,59.40
2017-07-24T07:38:13.493Z,59.50
2017-07-24T07:40:41.020Z,59.30
2017-07-24T07:43:08.440Z,59.00
2017-07-24T07:45:35.870Z,59.40
2017-07-24T07:48:03.294Z,59.50
2017-07-24T07:50:30.760Z,59.30
2017-07-24T07:52:58.193Z,58.80
2017-07-24T07:55:25.644Z,58.70
2017-07-24T07:57:53.132Z,58.40
2017-07-24T08:00:20.539Z,57.90
2017-07-24T08:02:48.732Z,58.20
2017-07-24T08:05:16.152Z,58.10
2017-07-24T08:07:43.609Z,58.60
2017-07-24T08:10:11.015Z,59.30
2017-07-24T08:12:38.435Z,59.50
2017-07-24T08:15:05.884Z,59.30
2017-07-24T08:17:33.301Z,59.00
2017-07-24T08:20:00.744Z,58.60
2017-07-24T08:22:28.157Z,59.40
2017-07-24T08:24:56.363Z,59.80
2017-07-24T08:27:23.787Z,59.70
2017-07-24T08:29:51.989Z,61.80
2017-07-24T08:32:19.540Z,61.70
2017-07-24T08:34:46.968Z,63.00
2017-07-24T08:37:14.393Z,64.00
2017-07-24T08:39:41.902Z,64.40
2017-07-24T08:42:09.341Z,65.30
2017-07-24T08:44:36.765Z,64.60
2017-07-24T08:47:04.190Z,64.80
2017-07-24T08:49:31.637Z,66.70
2017-07-24T08:51:59.049Z,66.30
2017-07-24T08:54:26.457Z,67.50
2017-07-24T08:56:54.680Z,70.00
2017-07-24T08:59:22.140Z,69.30
2017-07-24T09:01:49.562Z,69.50
2017-07-24T09:04:17.757Z,70.00
2017-07-24T09:06:45.184Z,69.90
2017-07-24T09:09:12.600Z,70.20
2017-07-24T09:11:40.020Z,71.00
2017-07-24T09:14:07.472Z,71.60
2017-07-24T09:16:34.893Z,72.30
2017-07-24T09:19:02.409Z,72.20
2017-07-24T09:21:29.854Z,72.30
2017-07-24T09:23:57.274Z,73.00
2017-07-24T09:26:25.452Z,72.90
2017-07-24T09:28:52.881Z,72.90
2017-07-24T09:31:20.307Z,73.00
2017-07-24T09:33:47.725Z,73.20
2017-07-24T09:36:15.152Z,74.40
2017-07-24T09:38:42.584Z,74.40
2017-07-24T09:41:10.004Z,75.70
2017-07-24T09:43:37.425Z,75.50
2017-07-24T09:46:05.616Z,76.00
2017-07-24T09:48:33.042Z,76.00
2017-07-24T09:51:01.240Z,77.10
2017-07-24T09:53:28.664Z,77.70
2017-07-24T09:55:56.111Z,77.60
2017-07-24T09:58:23.530Z,78.40
2017-07-24T10:00:50.972Z,78.40
2017-07-24T10:03:18.398Z,78.50
2017-07-24T10:05:46.585Z,78.20
2017-07-24T10:08:14.797Z,77.80
2017-07-24T10:10:42.275Z,77.60
2017-07-24T10:13:09.677Z,77.20
2017-07-24T10:15:37.110Z,77.10
2017-07-24T10:18:04.536Z,75.80
2017-07-24T10:20:32.028Z,76.30
2017-07-24T10:23:00.220Z,76.50
2017-07-24T10:25:27.651Z,76.50
2017-07-24T10:27:55.832Z,76.90
2017-07-24T10:30:24.066Z,76.90
2017-07-24T10:32:51.481Z,76.90
2017-07-24T10:35:18.916Z,77.70
2017-07-24T10:37:46.340Z,77.40
2017-07-24T10:40:13.793Z,77.80
2017-07-24T10:42:41.194Z,78.30
2017-07-24T10:45:09.381Z,80.10
2017-07-24T10:47:36.836Z,80.10
2017-07-24T10:50:04.273Z,80.40
2017-07-24T10:55:07.204Z,83.30
2017-07-24T10:57:34.688Z,83.30
2017-07-24T11:00:02.117Z,83.60
2017-07-24T11:02:29.606Z,83.20
2017-07-24T11:04:57.053Z,83.70
2017-07-24T11:07:24.471Z,83.20
2017-07-24T11:12:28.631Z,83.80
2017-07-24T11:14:56.053Z,82.60
2017-07-24T11:17:23.472Z,83.50
2017-07-24T11:19:50.917Z,85.40
2017-07-24T11:22:18.365Z,84.70
2017-07-24T11:24:45.798Z,85.50
2017-07-24T11:27:13.228Z,86.00
2017-07-24T11:29:40.668Z,87.00
2017-07-24T11:32:08.191Z,87.40
2017-07-24T11:34:35.642Z,87.40
2017-07-24T11:37:03.060Z,87.60
2017-07-24T11:39:30.490Z,86.90
2017-07-24T11:41:58.688Z,88.50
2017-07-24T11:44:26.109Z,88.00
2017-07-24T11:46:53.541Z,87.60
2017-07-24T11:49:20.956Z,87.60
2017-07-24T11:51:48.413Z,88.60
2017-07-24T11:54:15.838Z,88.70
2017-07-24T11:56:44.036Z,88.50
2017-07-24T11:59:12.244Z,88.90
2017-07-24T12:01:39.649Z,88.90
2017-07-24T12:04:07.867Z,88.80
2017-07-24T12:06:35.376Z,88.70
2017-07-24T12:09:03.574Z,87.90
2017-07-24T12:11:30.998Z,87.80
2017-07-24T12:13:58.435Z,87.90
2017-07-24T12:16:25.873Z,87.30
2017-07-24T12:18:53.314Z,87.60
2017-07-24T12:21:20.748Z,87.50
2017-07-24T12:23:48.976Z,88.30
2017-07-24T12:26:16.464Z,88.30
2017-07-24T12:28:43.896Z,88.90
2017-07-24T12:31:11.314Z,87.30
2017-07-24T12:33:38.760Z,86.00
2017-07-24T12:36:06.205Z,87.20
2017-07-24T12:38:33.651Z,88.00
2017-07-24T12:41:01.080Z,88.80
2017-07-24T12:43:28.520Z,86.10
2017-07-24T12:45:55.958Z,85.90
2017-07-24T12:48:23.388Z,87.30
2017-07-24T12:50:50.823Z,84.90
2017-07-24T12:53:19.017Z,85.30
2017-07-24T12:55:46.480Z,85.40
2017-07-24T12:58:13.895Z,84.90
2017-07-24T13:00:42.089Z,84.80
2017-07-24T13:03:09.517Z,85.40
2017-07-24T13:05:36.932Z,84.80
2017-07-24T13:08:04.373Z,85.60
2017-07-24T13:10:31.815Z,86.20
2017-07-24T13:12:59.234Z,86.30
2017-07-24T13:15:26.673Z,86.60
2017-07-24T13:17:54.114Z,86.80
2017-07-24T13:20:21.544Z,86.60
2017-07-24T13:22:48.960Z,87.40
2017-07-24T13:25:16.393Z,88.50
2017-07-24T13:27:43.830Z,88.10
2017-07-24T13:30:11.319Z,89.80
2017-07-24T13:32:38.773Z,88.80
2017-07-24T13:35:06.207Z,88.30
2017-07-24T13:37:33.704Z,88.30
2017-07-24T13:40:01.131Z,88.30
2017-07-24T13:42:28.567Z,88.90
2017-07-24T13:44:55.996Z,88.40
2017-07-24T13:47:23.435Z,88.60
2017-07-24T13:49:50.900Z,87.20
2017-07-24T13:52:18.330Z,86.20
2017-07-24T13:54:45.782Z,86.80
2017-07-24T13:57:13.213Z,87.50
2017-07-24T13:59:40.643Z,88.90
2017-07-24T14:02:08.066Z,88.60
2017-07-24T14:04:36.276Z,89.70
2017-07-24T14:07:03.697Z,89.60
2017-07-24T14:09:31.982Z,88.00
2017-07-24T14:11:59.429Z,87.90
2017-07-24T14:14:26.857Z,88.90
2017-07-24T14:16:54.273Z,89.70
2017-07-24T14:19:21.758Z,90.30
2017-07-24T14:24:25.841Z,90.10
2017-07-24T14:26:53.277Z,89.90
2017-07-24T14:29:20.692Z,89.00
2017-07-24T14:31:48.124Z,90.10
2017-07-24T14:34:15.560Z,90.00
2017-07-24T14:36:43.752Z,89.40
2017-07-24T14:39:11.205Z,89.40
2017-07-24T14:41:38.657Z,89.50
2017-07-24T14:44:06.201Z,89.70
2017-07-24T14:46:34.412Z,90.00
2017-07-24T14:49:01.832Z,90.00
2017-07-24T14:51:29.286Z,90.10
2017-07-24T14:53:56.705Z,88.80
2017-07-24T14:56:24.149Z,89.10
2017-07-24T14:58:51.574Z,90.10
2017-07-24T15:01:19.011Z,90.00
2017-07-24T15:03:46.602Z,89.20
2017-07-24T15:06:14.076Z,89.10
2017-07-24T15:08:41.532Z,90.30
2017-07-24T15:11:09.004Z,91.00
2017-07-24T15:13:36.425Z,90.70
2017-07-24T15:16:03.869Z,91.00
2017-07-24T15:18:31.293Z,90.60
2017-07-24T15:20:58.734Z,91.70
2017-07-24T15:23:26.172Z,91.60
2017-07-24T15:25:54.365Z,91.80
2017-07-24T15:28:21.796Z,91.80
2017-07-24T15:30:50.016Z,92.60
2017-07-24T15:33:17.426Z,92.20
2017-07-24T15:35:44.856Z,92.10
2017-07-24T15:38:12.300Z,92.50
2017-07-24T15:40:39.742Z,92.50
2017-07-24T15:43:07.168Z,92.50
2017-07-24T15:45:35.425Z,92.80
2017-07-24T15:48:03.621Z,93.00
2017-07-24T15:50:31.055Z,93.00
2017-07-24T15:52:58.496Z,93.10
2017-07-24T15:55:25.964Z,93.60
2017-07-24T15:57:53.376Z,93.60
2017-07-24T16:00:20.832Z,93.80
2017-07-24T16:02:48.300Z,94.10
2017-07-24T16:05:15.720Z,94.80
2017-07-24T16:07:43.183Z,94.90
2017-07-24T16:10:10.607Z,95.30
2017-07-24T16:12:38.173Z,95.40
2017-07-24T16:15:05.711Z,95.40
2017-07-24T16:17:33.141Z,95.40
2017-07-24T16:20:00.576Z,95.30
2017-07-24T16:22:28.031Z,95.60
2017-07-24T16:24:55.473Z,95.70
2017-07-24T16:27:22.888Z,96.10
2017-07-24T16:29:50.313Z,96.20
2017-07-24T16:32:17.752Z,95.90
2017-07-24T16:34:45.228Z,96.10
2017-07-24T16:37:12.654Z,96.00
2017-07-24T16:39:40.073Z,96.00
2017-07-24T16:42:08.280Z,96.40
2017-07-24T16:44:35.719Z,96.30
2017-07-24T16:47:03.925Z,96.40
2017-07-24T16:49:31.486Z,96.40
2017-07-24T16:51:58.944Z,95.90
2017-07-24T16:54:26.408Z,96.00
2017-07-24T16:56:53.877Z,96.00
2017-07-24T16:59:21.293Z,96.10
2017-07-24T17:01:48.737Z,95.90
2017-07-24T17:04:17.263Z,95.60
2017-07-24T17:06:44.709Z,95.60
2017-07-24T17:09:12.164Z,95.50
2017-07-24T17:11:39.614Z,95.90
2017-07-24T17:14:07.056Z,96.10
2017-07-24T17:16:34.525Z,96.00
2017-07-24T17:19:01.944Z,96.10
2017-07-24T17:21:29.369Z,95.90
2017-07-24T17:23:57.574Z,95.50
2017-07-24T17:26:25.013Z,95.50
2017-07-24T17:28:52.462Z,96.10
2017-07-24T17:31:20.712Z,95.80
2017-07-24T17:33:48.129Z,95.80
2017-07-24T17:36:15.581Z,95.60
2017-07-24T17:38:43.004Z,96.20
2017-07-24T17:41:10.461Z,96.60
2017-07-24T17:43:37.888Z,96.60
2017-07-24T17:46:05.335Z,96.70
2017-07-24T17:48:32.783Z,96.60
2017-07-24T17:51:00.221Z,97.10
2017-07-24T17:53:28.515Z,96.60
2017-07-24T17:55:56.640Z,96.70
2017-07-24T17:58:24.077Z,96.70
2017-07-24T18:00:52.302Z,97.10
2017-07-24T18:03:19.723Z,97.00
2017-07-24T18:05:47.144Z,96.90
2017-07-24T18:08:14.593Z,96.40
2017-07-24T18:10:42.017Z,95.90
2017-07-24T18:13:09.464Z,95.50
2017-07-24T18:15:36.908Z,95.20
2017-07-24T18:18:04.330Z,95.00
2017-07-24T18:20:32.572Z,94.80
2017-07-24T18:23:00.013Z,94.80
2017-07-24T18:25:27.642Z,94.80
2017-07-24T18:27:55.069Z,95.00
2017-07-24T18:30:23.304Z,94.90
2017-07-24T18:32:51.206Z,94.80
2017-07-24T18:35:19.122Z,94.60
2017-07-24T18:37:46.539Z,94.70
2017-07-24T18:40:14.137Z,95.30
2017-07-24T18:42:42.312Z,95.70
2017-07-24T18:45:09.807Z,95.70
2017-07-24T18:47:37.233Z,95.70
2017-07-24T18:50:04.645Z,95.30
2017-07-24T18:52:32.841Z,95.10
2017-07-24T18:55:00.273Z,95.10
2017-07-24T18:57:27.696Z,95.20
2017-07-24T18:59:55.139Z,95.20
2017-07-24T19:02:22.544Z,94.80
2017-07-24T19:04:49.977Z,95.00
2017-07-24T19:07:17.406Z,95.20
2017-07-24T19:09:44.847Z,95.20
2017-07-24T19:12:12.277Z,95.50
2017-07-24T19:14:39.718Z,95.20
2017-07-24T19:17:07.904Z,95.00
2017-07-24T19:19:35.362Z,95.00
2017-07-24T19:22:03.574Z,95.10
2017-07-24T19:24:31.061Z,95.10
2017-07-24T19:26:58.529Z,95.00
2017-07-24T19:29:26.049Z,95.20
2017-07-24T19:31:53.536Z,95.60
2017-07-24T19:34:21.032Z,95.50
2017-07-24T19:36:48.497Z,95.70
2017-07-24T19:39:15.970Z,96.00
2017-07-24T19:41:43.384Z,96.20
2017-07-24T19:44:10.826Z,96.20
2017-07-24T19:46:38.248Z,96.60
2017-07-24T19:49:05.677Z,96.90
2017-07-24T19:51:35.013Z,96.90
2017-07-24T19:54:02.581Z,97.00
2017-07-24T19:56:30.059Z,97.00
2017-07-24T19:58:58.361Z,96.90
2017-07-24T20:01:25.930Z,96.80
2017-07-24T20:03:53.522Z,96.60
2017-07-24T20:06:21.040Z,96.80
2017-07-24T20:08:48.479Z,96.90
2017-07-24T20:11:16.126Z,97.20
2017-07-24T20:13:44.318Z,97.70
2017-07-24T20:16:11.772Z,97.70
2017-07-24T20:18:39.199Z,97.30
2017-07-24T20:21:07.567Z,97.30
2017-07-24T20:23:34.987Z,97.40
2017-07-24T20:26:02.454Z,97.60
2017-07-24T20:28:29.897Z,97.40
2017-07-24T20:30:57.317Z,97.50
2017-07-24T20:33:25.592Z,97.40
2017-07-24T20:35:53.034Z,97.40
2017-07-24T20:38:20.479Z,97.80
2017-07-24T20:40:47.906Z,97.50
2017-07-24T20:43:15.350Z,97.60
2017-07-24T20:45:42.789Z,97.80
2017-07-24T20:48:10.983Z,97.70
2017-07-24T20:50:38.443Z,97.70
2017-07-24T20:53:05.873Z,97.50
2017-07-24T20:55:34.072Z,97.80
2017-07-24T20:58:01.514Z,97.90
2017-07-24T21:00:28.940Z,98.00
2017-07-24T21:02:56.383Z,98.00
2017-07-24T21:05:23.922Z,98.00
2017-07-24T21:07:51.405Z,98.20
2017-07-24T21:10:18.850Z,98.40
2017-07-24T21:12:46.330Z,97.90
2017-07-24T21:15:14.578Z,98.20
2017-07-24T21:17:42.022Z,98.20
2017-07-24T21:20:09.485Z,98.60
2017-07-24T21:22:37.053Z,98.40
2017-07-24T21:25:05.120Z,98.70
2017-07-24T21:27:32.796Z,98.80
2017-07-24T21:30:00.209Z,98.90
2017-07-24T21:32:27.645Z,98.90
2017-07-24T21:34:55.068Z,99.10
2017-07-24T21:37:22.508Z,99.30
2017-07-24T21:39:49.958Z,99.30
2017-07-24T21:42:17.396Z,99.40
2017-07-24T21:44:44.849Z,99.60
2017-07-24T21:47:12.269Z,99.60
2017-07-24T21:49:39.708Z,99.70
2017-07-24T21:52:07.127Z,99.80
2017-07-24T21:54:34.548Z,99.60
2017-07-24T21:57:01.989Z,99.90
2017-07-24T21:59:29.458Z,99.70
2017-07-24T22:01:56.905Z,99.80
2017-07-24T22:04:24.338Z,99.90
2017-07-24T22:06:51.748Z,99.70
2017-07-24T22:09:19.201Z,99.80
2017-07-24T22:11:46.624Z,99.90
2017-07-24T22:14:14.048Z,99.70
2017-07-24T22:16:41.496Z,99.80
2017-07-24T22:19:08.935Z,99.60
2017-07-24T22:21:37.119Z,99.70
2017-07-24T22:24:04.549Z,99.30
2017-07-24T22:26:32.010Z,99.60
2017-07-24T22:28:59.497Z,99.70
2017-07-24T22:31:26.953Z,99.50
2017-07-24T22:33:54.403Z,99.40
2017-07-24T22:36:21.828Z,99.60
2017-07-24T22:38:49.261Z,99.50
2017-07-24T22:41:16.715Z,99.70
2017-07-24T22:46:30.353Z,99.40
2017-07-24T22:48:57.793Z,99.70
2017-07-24T22:51:25.239Z,99.70
2017-07-24T22:53:52.658Z,99.50
2017-07-24T22:56:20.100Z,99.30
2017-07-24T22:58:47.515Z,99.20
2017-07-24T23:01:14.973Z,99.10
2017-07-24T23:03:42.496Z,99.10
2017-07-24T23:06:10.672Z,98.90
2017-07-24T23:08:38.110Z,98.90
2017-07-24T23:11:05.620Z,99.10
2017-07-24T23:13:33.111Z,99.50
2017-07-24T23:16:01.300Z,99.60
2017-07-24T23:18:28.727Z,99.70
2017-07-24T23:20:56.158Z,99.20
2017-07-24T23:23:23.588Z,99.40
2017-07-24T23:25:51.016Z,99.50
2017-07-24T23:28:18.453Z,99.50
2017-07-24T23:30:45.889Z,99.80
2017-07-24T23:33:13.321Z,99.70
2017-07-24T23:35:40.788Z,99.80
2017-07-24T23:38:08.225Z,99.90
2017-07-24T23:40:35.639Z,99.90
2017-07-24T23:43:03.840Z,99.90
2017-07-24T23:45:31.272Z,99.90
2017-07-24T23:47:59.468Z,99.90
2017-07-24T23:50:26.905Z,99.90
2017-07-24T23:52:55.118Z,99.80
2017-07-24T23:55:22.548Z,99.80
2017-07-24T23:57:49.971Z,99.90
